createdAt,value
2019-01-10T00:00:23.383Z,0.12
2019-01-10T00:02:52.527Z,0.04
2019-01-10T00:05:21.500Z,-0.04
2019-01-10T00:07:50.388Z,-0.09
2019-01-10T00:10:19.425Z,-0.13
2019-01-10T00:12:48.297Z,-0.14
2019-01-10T00:15:18.043Z,-0.17
2019-01-10T00:17:47.268Z,-0.16
2019-01-10T00:20:17.049Z,-0.09
2019-01-10T00:22:46.052Z,-0.10
2019-01-10T00:25:15.214Z,-0.08
2019-01-10T00:27:44.195Z,-0.10
2019-01-10T00:30:18.091Z,-0.02
2019-01-10T00:32:47.202Z,-0.09
2019-01-10T00:35:16.372Z,-0.09
2019-01-10T00:37:45.318Z,-0.03
2019-01-10T00:40:15.152Z,-0.03
2019-01-10T00:42:49.679Z,-0.05
2019-01-10T00:45:15.878Z,0.00
2019-01-10T00:47:44.929Z,0.05
2019-01-10T00:50:16.494Z,0.05
2019-01-10T00:52:45.590Z,0.01
2019-01-10T00:55:14.785Z,-0.03
2019-01-10T00:57:43.743Z,0.02
2019-01-10T01:00:16.895Z,-0.02
2019-01-10T01:02:45.880Z,-0.03
2019-01-10T01:05:15.332Z,-0.02
2019-01-10T01:07:44.272Z,0.05
2019-01-10T01:10:16.532Z,0.11
2019-01-10T01:12:45.500Z,0.21
2019-01-10T01:15:15.543Z,0.21
2019-01-10T01:17:44.502Z,0.25
2019-01-10T01:20:14.223Z,0.18
2019-01-10T01:22:43.187Z,0.08
2019-01-10T01:25:12.709Z,0.14
2019-01-10T01:27:41.759Z,0.20
2019-01-10T01:30:14.092Z,0.26
2019-01-10T01:32:43.327Z,0.15
2019-01-10T01:35:12.601Z,0.17
2019-01-10T01:37:41.488Z,0.14
2019-01-10T01:40:11.338Z,0.13
2019-01-10T01:42:40.148Z,0.21
2019-01-10T01:45:10.661Z,0.16
2019-01-10T01:47:39.820Z,0.18
2019-01-10T01:50:11.351Z,0.21
2019-01-10T01:52:40.285Z,0.24
2019-01-10T01:55:09.543Z,0.15
2019-01-10T01:57:38.432Z,0.25
2019-01-10T02:00:11.564Z,0.23
2019-01-10T02:02:40.519Z,0.25
2019-01-10T02:05:10.269Z,0.25
2019-01-10T02:07:39.206Z,0.21
2019-01-10T02:10:12.521Z,0.22
2019-01-10T02:12:41.456Z,0.29
2019-01-10T02:15:10.822Z,0.21
2019-01-10T02:17:48.528Z,0.26
2019-01-10T02:20:10.701Z,0.22
2019-01-10T02:22:39.846Z,0.20
2019-01-10T02:25:09.813Z,0.25
2019-01-10T02:27:38.777Z,0.25
2019-01-10T02:30:10.474Z,0.25
2019-01-10T02:32:39.407Z,0.27
2019-01-10T02:35:09.338Z,0.27
2019-01-10T02:37:38.191Z,0.22
2019-01-10T02:40:07.745Z,0.25
2019-01-10T02:42:36.617Z,0.25
2019-01-10T02:45:06.307Z,0.28
2019-01-10T02:47:35.246Z,0.25
2019-01-10T02:50:04.987Z,0.25
2019-01-10T02:52:33.872Z,0.23
2019-01-10T02:55:02.771Z,0.25
2019-01-10T02:57:31.571Z,0.24
2019-01-10T03:00:00.538Z,0.20
2019-01-10T03:02:29.485Z,0.17
2019-01-10T03:04:58.439Z,0.23
2019-01-10T03:07:27.318Z,0.19
2019-01-10T03:09:56.202Z,0.26
2019-01-10T03:12:25.068Z,0.26
2019-01-10T03:14:54.016Z,0.22
2019-01-10T03:17:22.847Z,0.25
2019-01-10T03:19:51.788Z,0.27
2019-01-10T03:22:20.751Z,0.35
2019-01-10T03:24:49.557Z,0.24
2019-01-10T03:27:18.437Z,0.28
2019-01-10T03:29:47.340Z,0.26
2019-01-10T03:32:16.792Z,0.32
2019-01-10T03:34:45.655Z,0.23
2019-01-10T03:37:14.561Z,0.20
2019-01-10T03:39:43.512Z,0.19
2019-01-10T03:42:12.568Z,0.20
2019-01-10T03:44:41.499Z,0.27
2019-01-10T03:47:10.381Z,0.31
2019-01-10T03:49:39.173Z,0.27
2019-01-10T03:52:08.046Z,0.35
2019-01-10T03:54:36.939Z,0.27
2019-01-10T03:57:05.897Z,0.26
2019-01-10T03:59:34.697Z,0.20
2019-01-10T04:02:03.572Z,0.31
2019-01-10T04:04:32.517Z,0.24
2019-01-10T04:07:01.412Z,0.25
2019-01-10T04:09:30.341Z,0.26
2019-01-10T04:11:59.323Z,0.28
2019-01-10T04:14:28.171Z,0.38
2019-01-10T04:16:57.078Z,0.32
2019-01-10T04:19:25.968Z,0.43
2019-01-10T04:21:54.793Z,0.37
2019-01-10T04:24:23.593Z,0.31
2019-01-10T04:26:52.643Z,0.37
2019-01-10T04:29:21.478Z,0.36
2019-01-10T04:31:50.363Z,0.28
2019-01-10T04:34:19.234Z,0.37
2019-01-10T04:36:48.877Z,0.36
2019-01-10T04:39:17.740Z,0.38
2019-01-10T04:41:46.628Z,0.42
2019-01-10T04:44:15.588Z,0.34
2019-01-10T04:46:44.549Z,0.44
2019-01-10T04:49:13.478Z,0.42
2019-01-10T04:51:42.294Z,0.37
2019-01-10T04:54:11.122Z,0.37
2019-01-10T04:56:39.944Z,0.38
2019-01-10T04:59:08.811Z,0.38
2019-01-10T05:01:37.837Z,0.32
2019-01-10T05:04:06.657Z,0.43
2019-01-10T05:06:35.630Z,0.51
2019-01-10T05:09:07.089Z,0.49
2019-01-10T05:11:36.101Z,0.48
2019-01-10T05:14:05.043Z,0.53
2019-01-10T05:16:33.919Z,0.43
2019-01-10T05:19:02.828Z,0.42
2019-01-10T05:21:31.673Z,0.41
2019-01-10T05:24:00.635Z,0.42
2019-01-10T05:26:29.675Z,0.45
2019-01-10T05:28:58.474Z,0.36
2019-01-10T05:31:27.266Z,0.43
2019-01-10T05:33:56.237Z,0.43
2019-01-10T05:36:25.171Z,0.34
2019-01-10T05:38:53.978Z,0.44
2019-01-10T05:41:22.784Z,0.41
2019-01-10T05:43:51.648Z,0.48
2019-01-10T05:46:21.146Z,0.51
2019-01-10T05:48:49.954Z,0.46
2019-01-10T05:51:18.906Z,0.41
2019-01-10T05:53:48.065Z,0.44
2019-01-10T05:56:17.166Z,0.54
2019-01-10T05:58:45.997Z,0.59
2019-01-10T06:01:14.858Z,0.40
2019-01-10T06:03:52.976Z,0.40
2019-01-10T06:06:14.355Z,0.48
2019-01-10T06:08:43.251Z,0.50
2019-01-10T06:11:12.144Z,0.49
2019-01-10T06:13:40.946Z,0.37
2019-01-10T06:16:09.812Z,0.45
2019-01-10T06:18:38.656Z,0.47
2019-01-10T06:21:07.597Z,0.48
2019-01-10T06:23:36.491Z,0.49
2019-01-10T06:26:05.525Z,0.44
2019-01-10T06:28:34.338Z,0.53
2019-01-10T06:31:03.285Z,0.56
2019-01-10T06:33:32.232Z,0.47
2019-01-10T06:36:01.105Z,0.49
2019-01-10T06:38:29.996Z,0.48
2019-01-10T06:40:58.886Z,0.43
2019-01-10T06:43:27.817Z,0.54
2019-01-10T06:45:56.674Z,0.46
2019-01-10T06:48:25.945Z,0.42
2019-01-10T06:50:54.919Z,0.48
2019-01-10T06:53:23.855Z,0.56
2019-01-10T06:55:53.258Z,0.49
2019-01-10T06:58:22.150Z,0.55
2019-01-10T07:00:50.961Z,0.50
2019-01-10T07:03:19.854Z,0.49
2019-01-10T07:05:48.720Z,0.55
2019-01-10T07:08:17.536Z,0.53
2019-01-10T07:10:46.520Z,0.57
2019-01-10T07:13:15.396Z,0.48
2019-01-10T07:15:44.338Z,0.52
2019-01-10T07:18:13.220Z,0.40
2019-01-10T07:20:42.412Z,0.42
2019-01-10T07:23:11.297Z,0.47
2019-01-10T07:25:40.127Z,0.44
2019-01-10T07:28:27.051Z,0.42
2019-01-10T07:30:59.554Z,0.33
2019-01-10T07:33:28.447Z,0.34
2019-01-10T07:35:58.480Z,0.37
2019-01-10T07:38:27.603Z,0.45
2019-01-10T07:40:56.797Z,0.51
2019-01-10T07:43:28.777Z,0.30
2019-01-10T07:45:59.261Z,0.34
2019-01-10T07:48:28.137Z,0.34
2019-01-10T07:50:57.027Z,0.40
2019-01-10T07:53:25.907Z,0.47
2019-01-10T07:55:55.469Z,0.55
2019-01-10T07:58:24.260Z,0.42
2019-01-10T08:00:54.025Z,0.45
2019-01-10T08:03:23.016Z,0.40
2019-01-10T08:05:51.834Z,0.41
2019-01-10T08:08:20.783Z,0.38
2019-01-10T08:10:49.822Z,0.53
2019-01-10T08:13:19.648Z,0.54
2019-01-10T08:15:48.746Z,0.59
2019-01-10T08:18:17.690Z,0.64
2019-01-10T08:20:46.666Z,0.58
2019-01-10T08:23:15.651Z,0.77
2019-01-10T08:25:44.582Z,0.78
2019-01-10T08:28:13.534Z,0.73
2019-01-10T08:30:42.344Z,0.74
2019-01-10T08:33:11.278Z,0.70
2019-01-10T08:35:40.168Z,0.68
2019-01-10T08:38:09.113Z,0.64
2019-01-10T08:40:37.993Z,0.57
2019-01-10T08:43:07.047Z,0.75
2019-01-10T08:45:35.968Z,0.82
2019-01-10T08:48:05.272Z,0.82
2019-01-10T08:50:34.248Z,0.98
2019-01-10T08:53:03.167Z,0.91
2019-01-10T08:55:32.070Z,0.99
2019-01-10T08:58:00.939Z,0.97
2019-01-10T09:00:31.454Z,0.94
2019-01-10T09:03:00.399Z,1.03
2019-01-10T09:05:29.197Z,0.91
2019-01-10T09:07:58.146Z,0.97
2019-01-10T09:10:29.081Z,0.98
2019-01-10T09:12:58.228Z,1.10
2019-01-10T09:15:34.371Z,0.96
2019-01-10T09:17:58.578Z,0.96
2019-01-10T09:20:27.465Z,0.97
2019-01-10T09:22:56.497Z,1.09
2019-01-10T09:25:25.496Z,1.11
2019-01-10T09:27:54.468Z,1.13
2019-01-10T09:30:23.761Z,1.33
2019-01-10T09:32:52.808Z,1.32
2019-01-10T09:35:22.036Z,1.34
2019-01-10T09:37:51.074Z,1.27
2019-01-10T09:40:21.457Z,1.20
2019-01-10T09:42:50.402Z,1.26
2019-01-10T09:45:23.954Z,1.25
2019-01-10T09:47:52.850Z,1.26
2019-01-10T09:50:22.579Z,1.23
2019-01-10T09:52:52.025Z,1.27
2019-01-10T09:55:20.978Z,1.38
2019-01-10T09:57:50.085Z,1.34
2019-01-10T10:00:27.358Z,1.22
2019-01-10T10:02:56.343Z,1.27
2019-01-10T10:05:25.292Z,1.21
2019-01-10T10:07:54.273Z,1.15
2019-01-10T10:10:23.130Z,1.28
2019-01-10T10:12:52.023Z,1.02
2019-01-10T10:15:21.323Z,1.12
2019-01-10T10:17:50.380Z,1.13
2019-01-10T10:20:21.695Z,1.09
2019-01-10T10:22:50.659Z,1.08
2019-01-10T10:25:19.636Z,1.19
2019-01-10T10:27:48.624Z,1.05
2019-01-10T10:30:19.729Z,1.02
2019-01-10T10:32:48.804Z,1.02
2019-01-10T10:35:18.473Z,1.10
2019-01-10T10:37:49.281Z,1.17
2019-01-10T10:40:22.231Z,1.08
2019-01-10T10:42:52.076Z,1.08
2019-01-10T10:45:21.788Z,1.20
2019-01-10T10:47:50.840Z,1.27
2019-01-10T10:50:22.355Z,1.30
2019-01-10T10:52:51.283Z,1.41
2019-01-10T10:55:20.222Z,1.37
2019-01-10T10:57:49.474Z,1.41
2019-01-10T11:00:21.455Z,1.36
2019-01-10T11:02:50.333Z,1.42
2019-01-10T11:05:19.322Z,1.37
2019-01-10T11:07:48.347Z,1.42
2019-01-10T11:10:18.603Z,1.49
2019-01-10T11:12:47.757Z,1.50
2019-01-10T11:15:16.911Z,1.50
2019-01-10T11:17:46.256Z,1.41
2019-01-10T11:20:17.502Z,1.45
2019-01-10T11:22:46.642Z,1.54
2019-01-10T11:25:17.847Z,1.62
2019-01-10T11:27:46.946Z,1.55
2019-01-10T11:30:17.402Z,1.53
2019-01-10T11:32:46.426Z,1.51
2019-01-10T11:35:15.726Z,1.54
2019-01-10T11:37:44.683Z,1.48
2019-01-10T11:40:18.752Z,1.43
2019-01-10T11:42:47.770Z,1.56
2019-01-10T11:45:18.582Z,1.62
2019-01-10T11:47:47.633Z,1.60
2019-01-10T11:50:16.656Z,1.54
2019-01-10T11:52:46.022Z,1.59
2019-01-10T11:55:15.124Z,1.60
2019-01-10T11:57:44.552Z,1.53
2019-01-10T12:00:36.408Z,1.68
2019-01-10T12:03:07.264Z,1.53
2019-01-10T12:05:47.337Z,1.53
2019-01-10T12:08:08.964Z,1.49
2019-01-10T12:10:37.903Z,1.45
2019-01-10T12:13:06.866Z,1.48
2019-01-10T12:15:36.188Z,1.50
2019-01-10T12:18:05.243Z,1.51
2019-01-10T12:20:34.212Z,1.63
2019-01-10T12:23:03.154Z,1.69
2019-01-10T12:25:32.145Z,1.65
2019-01-10T12:28:01.100Z,1.75
2019-01-10T12:30:30.021Z,1.62
2019-01-10T12:32:58.993Z,1.56
2019-01-10T12:35:27.806Z,1.43
2019-01-10T12:37:56.720Z,1.41
2019-01-10T12:40:25.669Z,1.52
2019-01-10T12:42:54.934Z,1.59
2019-01-10T12:45:23.892Z,1.63
2019-01-10T12:47:52.863Z,1.67
2019-01-10T12:50:32.686Z,1.76
2019-01-10T12:53:06.390Z,1.66
2019-01-10T12:55:35.467Z,1.69
2019-01-10T12:58:04.664Z,1.74
2019-01-10T13:00:33.599Z,1.65
2019-01-10T13:03:02.571Z,1.64
2019-01-10T13:05:31.757Z,1.63
2019-01-10T13:08:03.899Z,1.61
2019-01-10T13:10:31.394Z,1.68
2019-01-10T13:13:00.344Z,1.69
2019-01-10T13:15:29.565Z,1.68
2019-01-10T13:17:58.458Z,1.68
2019-01-10T13:20:27.517Z,1.63
2019-01-10T13:22:56.564Z,1.73
2019-01-10T13:25:25.508Z,1.89
2019-01-10T13:27:54.639Z,1.85
2019-01-10T13:30:27.505Z,1.77
2019-01-10T13:32:57.359Z,1.80
2019-01-10T13:35:27.061Z,1.82
2019-01-10T13:37:56.043Z,1.79
2019-01-10T13:40:26.204Z,1.84
2019-01-10T13:42:55.158Z,1.64
2019-01-10T13:45:24.292Z,1.67
2019-01-10T13:47:53.961Z,1.69
2019-01-10T13:50:28.644Z,1.69
2019-01-10T13:52:57.604Z,1.75
2019-01-10T13:55:26.505Z,1.72
2019-01-10T13:57:55.397Z,1.75
2019-01-10T14:00:32.164Z,1.79
2019-01-10T14:02:59.869Z,1.70
2019-01-10T14:05:28.850Z,1.75
2019-01-10T14:07:57.813Z,1.77
2019-01-10T14:10:26.790Z,1.68
2019-01-10T14:12:55.716Z,1.72
2019-01-10T14:15:30.792Z,1.71
2019-01-10T14:17:59.652Z,1.62
2019-01-10T14:20:28.613Z,1.60
2019-01-10T14:22:57.472Z,1.50
2019-01-10T14:25:26.705Z,1.47
2019-01-10T14:27:59.557Z,1.49
2019-01-10T14:30:29.838Z,1.55
2019-01-10T14:32:58.779Z,1.58
2019-01-10T14:35:28.001Z,1.62
2019-01-10T14:37:56.998Z,1.49
2019-01-10T14:40:26.967Z,1.56
2019-01-10T14:42:56.114Z,1.48
2019-01-10T14:45:25.072Z,1.41
2019-01-10T14:47:53.939Z,1.39
2019-01-10T14:50:23.301Z,1.29
2019-01-10T14:52:52.252Z,1.30
2019-01-10T14:55:21.193Z,1.27
2019-01-10T14:57:50.116Z,1.26
2019-01-10T15:00:21.408Z,1.25
2019-01-10T15:02:50.346Z,1.24
2019-01-10T15:05:20.536Z,1.22
2019-01-10T15:07:49.707Z,1.16
2019-01-10T15:10:19.034Z,1.24
2019-01-10T15:12:48.547Z,1.18
2019-01-10T15:15:19.528Z,1.11
2019-01-10T15:17:48.835Z,1.09
2019-01-10T15:20:20.303Z,1.16
2019-01-10T15:22:49.177Z,1.07
2019-01-10T15:25:18.044Z,1.12
2019-01-10T15:27:46.934Z,1.22
2019-01-10T15:30:18.479Z,1.10
2019-01-10T15:32:47.421Z,1.13
2019-01-10T15:35:16.619Z,1.06
2019-01-10T15:37:45.572Z,1.04
2019-01-10T15:40:18.364Z,1.04
2019-01-10T15:42:47.306Z,0.96
2019-01-10T15:45:16.656Z,0.92
2019-01-10T15:47:45.606Z,0.90
2019-01-10T15:50:16.556Z,0.90
2019-01-10T15:52:45.697Z,0.88
2019-01-10T15:55:15.896Z,0.88
2019-01-10T15:57:44.753Z,0.89
2019-01-10T16:00:16.690Z,0.86
2019-01-10T16:02:45.627Z,0.84
2019-01-10T16:05:14.661Z,0.85
2019-01-10T16:07:43.929Z,0.81
2019-01-10T16:10:15.199Z,0.81
2019-01-10T16:12:44.248Z,0.79
2019-01-10T16:15:21.877Z,0.80
2019-01-10T16:17:50.960Z,0.80
2019-01-10T16:20:19.909Z,0.79
2019-01-10T16:22:48.922Z,0.81
2019-01-10T16:25:19.586Z,0.78
2019-01-10T16:27:48.892Z,0.78
2019-01-10T16:30:29.193Z,0.76
2019-01-10T16:32:58.164Z,0.80
2019-01-10T16:35:27.106Z,0.80
2019-01-10T16:37:56.076Z,0.79
2019-01-10T16:40:24.926Z,0.73
2019-01-10T16:42:53.986Z,0.77
2019-01-10T16:45:28.752Z,0.80
2019-01-10T16:47:57.733Z,0.78
2019-01-10T16:50:26.609Z,0.77
2019-01-10T16:52:55.601Z,0.81
2019-01-10T16:55:24.650Z,0.79
2019-01-10T16:57:53.693Z,0.76
2019-01-10T17:00:27.706Z,0.76
2019-01-10T17:02:56.666Z,0.78
2019-01-10T17:05:25.618Z,0.78
2019-01-10T17:07:54.568Z,0.77
2019-01-10T17:10:23.697Z,0.76
2019-01-10T17:12:52.595Z,0.74
2019-01-10T17:15:21.669Z,0.74
2019-01-10T17:17:50.628Z,0.74
2019-01-10T17:20:20.869Z,0.74
2019-01-10T17:22:49.860Z,0.74
2019-01-10T17:25:19.554Z,0.75
2019-01-10T17:27:48.527Z,0.75
2019-01-10T17:30:21.206Z,0.73
2019-01-10T17:32:50.166Z,0.74
2019-01-10T17:35:20.788Z,0.71
2019-01-10T17:37:49.866Z,0.69
2019-01-10T17:40:19.902Z,0.68
2019-01-10T17:42:48.947Z,0.71
2019-01-10T17:45:19.933Z,0.69
2019-01-10T17:47:48.872Z,0.68
2019-01-10T17:50:18.761Z,0.72
2019-01-10T17:52:47.823Z,0.76
2019-01-10T17:55:17.003Z,0.80
2019-01-10T17:57:45.873Z,0.79
2019-01-10T18:00:20.587Z,0.79
2019-01-10T18:02:49.613Z,0.83
2019-01-10T18:05:18.538Z,0.81
2019-01-10T18:07:47.576Z,0.81
2019-01-10T18:10:19.572Z,0.75
2019-01-10T18:12:48.709Z,0.71
2019-01-10T18:15:19.423Z,0.73
2019-01-10T18:17:50.482Z,0.74
2019-01-10T18:20:24.651Z,0.67
2019-01-10T18:22:53.525Z,0.74
2019-01-10T18:25:22.463Z,0.70
2019-01-10T18:27:51.430Z,0.68
2019-01-10T18:30:22.009Z,0.89
2019-01-10T18:32:51.259Z,0.73
2019-01-10T18:35:26.067Z,0.67
2019-01-10T18:37:51.290Z,0.77
2019-01-10T18:40:20.227Z,0.69
2019-01-10T18:42:49.324Z,0.63
2019-01-10T18:45:23.757Z,0.68
2019-01-10T18:47:56.966Z,0.72
2019-01-10T18:50:24.047Z,1.02
2019-01-10T18:52:53.119Z,1.14
2019-01-10T18:55:21.980Z,0.95
2019-01-10T18:57:50.863Z,0.76
2019-01-10T19:00:24.912Z,0.91
2019-01-10T19:02:54.011Z,0.73
2019-01-10T19:05:23.002Z,0.68
2019-01-10T19:07:51.957Z,0.61
2019-01-10T19:10:21.109Z,0.61
2019-01-10T19:12:50.214Z,0.59
2019-01-10T19:15:19.596Z,0.51
2019-01-10T19:17:48.610Z,0.53
2019-01-10T19:20:19.959Z,0.48
2019-01-10T19:22:49.832Z,0.45
2019-01-10T19:25:19.830Z,0.41
2019-01-10T19:27:48.821Z,0.36
2019-01-10T19:30:23.189Z,0.35
2019-01-10T19:32:52.221Z,0.57
2019-01-10T19:35:21.161Z,0.68
2019-01-10T19:37:50.352Z,0.78
2019-01-10T19:40:20.682Z,0.77
2019-01-10T19:42:50.659Z,0.72
2019-01-10T19:45:21.335Z,0.88
2019-01-10T19:47:50.704Z,0.91
2019-01-10T19:50:22.597Z,0.90
2019-01-10T19:52:51.971Z,0.88
2019-01-10T19:55:21.991Z,0.89
2019-01-10T19:57:51.199Z,0.82
2019-01-10T20:00:38.549Z,0.75
2019-01-10T20:03:07.558Z,0.73
2019-01-10T20:05:36.446Z,0.77
2019-01-10T20:08:05.501Z,0.72
2019-01-10T20:10:34.438Z,0.64
2019-01-10T20:13:03.392Z,0.70
2019-01-10T20:15:32.435Z,0.79
2019-01-10T20:18:01.867Z,0.84
2019-01-10T20:20:33.517Z,0.96
2019-01-10T20:23:04.474Z,1.27
2019-01-10T20:25:33.717Z,1.16
2019-01-10T20:28:03.752Z,0.88
2019-01-10T20:30:32.644Z,1.15
2019-01-10T20:33:01.609Z,1.28
2019-01-10T20:35:31.593Z,0.93
2019-01-10T20:38:00.584Z,0.69
2019-01-10T20:40:29.525Z,0.75
2019-01-10T20:42:58.393Z,0.86
2019-01-10T20:45:27.405Z,0.79
2019-01-10T20:47:56.357Z,0.78
2019-01-10T20:50:25.232Z,0.89
2019-01-10T20:52:54.312Z,0.95
2019-01-10T20:55:23.322Z,0.93
2019-01-10T20:57:52.213Z,0.91
2019-01-10T21:00:22.168Z,0.81
2019-01-10T21:02:51.447Z,0.88
2019-01-10T21:05:20.467Z,0.90
2019-01-10T21:07:50.306Z,1.04
2019-01-10T21:10:19.786Z,1.04
2019-01-10T21:12:49.198Z,0.90
2019-01-10T21:15:20.888Z,1.00
2019-01-10T21:17:49.974Z,0.89
2019-01-10T21:20:18.921Z,1.00
2019-01-10T21:22:49.252Z,1.17
2019-01-10T21:25:18.519Z,1.21
2019-01-10T21:27:47.548Z,1.06
2019-01-10T21:30:17.983Z,1.09
2019-01-10T21:32:47.474Z,1.05
2019-01-10T21:35:16.427Z,0.99
2019-01-10T21:37:45.363Z,0.98
2019-01-10T21:40:16.048Z,0.63
2019-01-10T21:42:44.861Z,0.66
2019-01-10T21:45:16.204Z,0.66
2019-01-10T21:47:45.133Z,0.93
2019-01-10T21:50:16.694Z,0.75
2019-01-10T21:52:45.761Z,0.66
2019-01-10T21:55:15.130Z,0.74
2019-01-10T21:57:44.155Z,0.56
2019-01-10T22:02:37.447Z,0.26
2019-01-10T22:05:06.989Z,0.20
2019-01-10T22:07:35.924Z,0.09
2019-01-10T22:10:05.551Z,0.03
2019-01-10T22:12:34.511Z,0.14
2019-01-10T22:15:04.266Z,0.14
2019-01-10T22:17:33.103Z,0.10
2019-01-10T22:20:02.067Z,-0.11
2019-01-10T22:22:30.854Z,-0.08
2019-01-10T22:24:59.776Z,0.06
2019-01-10T22:27:28.664Z,0.05
2019-01-10T22:29:57.533Z,-0.09
2019-01-10T22:32:26.505Z,0.15
2019-01-10T22:34:56.084Z,0.13
2019-01-10T22:37:28.997Z,0.02
2019-01-10T22:39:56.299Z,0.12
2019-01-10T22:42:25.185Z,0.33
2019-01-10T22:44:54.033Z,0.41
2019-01-10T22:47:22.910Z,0.22
2019-01-10T22:49:51.844Z,-0.17
2019-01-10T22:52:20.810Z,-0.32
2019-01-10T22:54:49.710Z,-0.20
2019-01-10T22:57:18.511Z,-0.22
2019-01-10T22:59:47.353Z,-0.18
2019-01-10T23:02:16.327Z,-0.22
2019-01-10T23:04:45.369Z,-0.23
2019-01-10T23:07:21.131Z,-0.42
2019-01-10T23:09:50.099Z,-0.70
2019-01-10T23:12:19.063Z,-0.48
2019-01-10T23:14:48.015Z,-0.48
2019-01-10T23:17:18.200Z,-0.39
2019-01-10T23:19:50.294Z,-0.51
2019-01-10T23:22:19.708Z,-0.56
2019-01-10T23:24:57.971Z,-0.48
2019-01-10T23:27:26.927Z,-0.55
2019-01-10T23:29:55.875Z,-0.64
2019-01-10T23:32:24.832Z,-1.01
2019-01-10T23:34:53.823Z,-1.10
2019-01-10T23:37:24.350Z,-0.95
2019-01-10T23:39:54.394Z,-0.82
2019-01-10T23:42:23.342Z,-0.85
2019-01-10T23:44:52.160Z,-0.84
2019-01-10T23:47:21.305Z,-0.85
2019-01-10T23:49:50.266Z,-1.02
2019-01-10T23:52:19.213Z,-1.05
2019-01-10T23:54:48.027Z,-0.85
2019-01-10T23:57:16.914Z,-0.92
2019-01-10T23:59:45.864Z,-0.98
